Airfield :
LOGIN :

Register | Disclaimer

   EN    FR    IT 

 










Legend :    VFR   Marginal VFR   IFR   Intensive IFR   Very Intensive IFR
Visi :
Ceiling :
>= 8 km
>= 3000ft
5 to 8 km
1000 to 3000 ft
1500m to 5 km
500 to 1000 ft
800 to 1500m
200 to 500 ft
< 800m
< 200 ft
Symbols :   Thunderstorms  Fog  Heavy snow  Heavy precipitations  Wind > 20 kt
SIGMETs :     Misc.  Thunderstorms  Icing  Turbulence  Mountain Waves  Volcanic Ashes







- Airport Elevation : 13 ft
- IATA code : SNR
- Download approach charts


LFRZ - St-Nazaire

CURRENT METAR :
  • 160430Z AUTO 04001KT 0200 0100 R25/0325N FG VV/// 03/03 Q1025 NOSIG

EXPIRED METARs :
  • 160400Z AUTO 09002KT 0350 R25/0400N FG VV/// 02/02 Q1025 NOSIG
  • 160330Z AUTO 00000KT 0750 0600 R25/1000U FG VV/// 03/02 Q1025 TEMPO 0200 FG
  • 160300Z AUTO VRB03KT 1000 0400 R25/0650U BCFG BKN005 02/01 Q1026 TEMPO 0200 FG VV///
  • 160230Z AUTO 34001KT 0250 R25/0225N FG FEW006 02/02 Q1026 TEMPO VV///
  • 160200Z AUTO 00000KT 0300 0200 R25/0400D FG FEW007 03/02 Q1026 TEMPO VV///

TAF TAF LFRZ
Valid from the 16 at 00:00 until the 17 at 00:00 UTC


152300Z 1600/1624 12004KT 2000 BR NSC
TEMPO 1600/1608 0200 FG VV///
BECMG 1609/1612 6000 NSW SCT010
No reported NOTAMs for that airfield.



MET'MAP, your aeronautical weather chart ! - Copyright ORBIFLY December 2007 - Disclaimer

ORBIFLY MET'MAP TEAM :

Programming & Development : Alexandra Zaïnal
Concept & Development : Baudouin d'Aumeries
Co-Development & Prog : Marc-Olivier Méhu
Technical & hardware support : Manuel Goepfert

Contact : metmap@orbifly.com




SOURCES & CREDITS :

   NOAA